PWSweather.com
Personal Weather Stations
Station Observations
DL5ARK
SonnebergDE

SonnebergDE

Lat: 50.34904861, Lon: 11.18112087

Elevation: 1214

Station Type: Selfmade

http://www.sumbarg.de

High Low Average
Temperature 90.5°F32.5°C 59.7°F15.4°C 73.5°F23.1°C
Dew Point 76.6°F24.8°C 62.6°F17.0°C 69.7°F20.9°C
Winds 17.4 mph 28.0 kmh Calm Calm 2.0 mph S3.2 kmh S
Wind Gusts 17.5 mph28.2 kmh -- 2.0 mph3.2 kmh
Humidity 89% 44% 70%
Pressure 30.06 in1017.9 mb 29.87 in1011.5 mb -
Precipitation 0.20 in5.1 mm - -
Hour Temp Dew Point Humidity Winds Wind Gusts Pressure Precip Precip Rate Daily Precip Total
12:01 AM 59.1°F15.1°C 62.3°F16.8°C 80% Calm Calm -- 29.93 in1013.5 mb 0.00 in0.0 mm 0.00 in0.0 mm 0.00 in0.0 mm
12:04 AM 59.3°F15.2°C 61.6°F16.4°C 79% Calm Calm -- 29.93 in1013.5 mb 0.00 in0.0 mm 0.00 in0.0 mm 0.00 in0.0 mm
12:07 AM 59.3°F15.2°C 62.3°F16.8°C 80% Calm Calm -- 29.93 in1013.5 mb 0.00 in0.0 mm 0.00 in0.0 mm 0.00 in0.0 mm
12:10 AM 59.5°F15.3°C 62.3°F16.8°C 80% Calm Calm -- 29.93 in1013.5 mb 0.00 in0.0 mm 0.00 in0.0 mm 0.00 in0.0 mm
12:13 AM 59.0°F15.0°C 62.5°F16.9°C 80% Calm Calm -- 29.93 in1013.5 mb 0.00 in0.0 mm 0.00 in0.0 mm 0.00 in0.0 mm
12:16 AM 58.2°F14.6°C 62.0°F16.7°C 79% Calm Calm -- 29.93 in1013.5 mb 0.00 in0.0 mm 0.00 in0.0 mm 0.00 in0.0 mm
12:19 AM 58.9°F14.9°C 61.9°F16.6°C 80% Calm Calm -- 29.93 in1013.5 mb 0.00 in0.0 mm 0.00 in0.0 mm 0.00 in0.0 mm
12:22 AM 58.9°F14.9°C 61.9°F16.6°C 80% Calm Calm -- 29.93 in1013.5 mb 0.00 in0.0 mm 0.00 in0.0 mm 0.00 in0.0 mm
12:25 AM 59.2°F15.1°C 62.1°F16.7°C 80% Calm Calm -- 29.93 in1013.5 mb 0.00 in0.0 mm 0.00 in0.0 mm 0.00 in0.0 mm
12:28 AM 59.3°F15.2°C 62.2°F16.8°C 81% Calm Calm -- 29.93 in1013.5 mb 0.00 in0.0 mm 0.00 in0.0 mm 0.00 in0.0 mm
12:31 AM 59.7°F15.4°C 62.8°F17.1°C 82% Calm Calm -- 29.93 in1013.5 mb 0.00 in0.0 mm 0.00 in0.0 mm 0.00 in0.0 mm
12:34 AM 59.3°F15.2°C 62.6°F17.0°C 81% Calm Calm -- 29.92 in1013.2 mb 0.00 in0.0 mm 0.00 in0.0 mm 0.00 in0.0 mm
12:37 AM 59.0°F15.0°C 62.4°F16.9°C 81% Calm Calm -- 29.92 in1013.2 mb 0.00 in0.0 mm 0.00 in0.0 mm 0.00 in0.0 mm
12:40 AM 59.2°F15.1°C 62.5°F16.9°C 81% Calm Calm -- 29.92 in1013.2 mb 0.00 in0.0 mm 0.00 in0.0 mm 0.00 in0.0 mm
12:46 AM 59.5°F15.3°C 62.5°F16.9°C 82% Calm Calm -- 29.92 in1013.2 mb 0.00 in0.0 mm 0.00 in0.0 mm 0.00 in0.0 mm
12:49 AM 59.3°F15.2°C 62.0°F16.7°C 81% Calm Calm -- 29.93 in1013.5 mb 0.00 in0.0 mm 0.00 in0.0 mm 0.00 in0.0 mm
12:52 AM 59.3°F15.2°C 62.4°F16.9°C 81% Calm Calm -- 29.91 in1012.9 mb 0.00 in0.0 mm 0.00 in0.0 mm 0.00 in0.0 mm
12:55 AM 59.5°F15.3°C 62.6°F17.0°C 83% 0.4 mph SE0.6 kmh SE 0.4 mph0.6 kmh 29.91 in1012.9 mb 0.00 in0.0 mm 0.00 in0.0 mm 0.00 in0.0 mm
01:01 AM 59.7°F15.4°C 62.6°F17.0°C 83% Calm Calm -- 29.91 in1012.9 mb 0.00 in0.0 mm 0.00 in0.0 mm 0.00 in0.0 mm
01:07 AM 60.4°F15.8°C 62.7°F17.1°C 83% Calm Calm -- 29.91 in1012.9 mb 0.00 in0.0 mm 0.00 in0.0 mm 0.00 in0.0 mm
01:10 AM 59.9°F15.5°C 63.0°F17.2°C 84% Calm Calm -- 29.91 in1012.9 mb 0.00 in0.0 mm 0.00 in0.0 mm 0.00 in0.0 mm
01:13 AM 59.9°F15.5°C 62.9°F17.2°C 84% Calm Calm -- 29.91 in1012.9 mb 0.00 in0.0 mm 0.00 in0.0 mm 0.00 in0.0 mm
01:16 AM 60.2°F15.7°C 62.9°F17.2°C 84% Calm Calm -- 29.92 in1013.2 mb 0.00 in0.0 mm 0.00 in0.0 mm 0.00 in0.0 mm
01:22 AM 60.6°F15.9°C 63.1°F17.3°C 83% 0.4 mph W0.6 kmh W 0.4 mph0.6 kmh 29.94 in1013.9 mb 0.00 in0.0 mm 0.00 in0.0 mm 0.00 in0.0 mm
01:25 AM 61.3°F16.3°C 63.6°F17.6°C 85% Calm Calm -- 29.94 in1013.9 mb 0.00 in0.0 mm 0.00 in0.0 mm 0.00 in0.0 mm
01:28 AM 61.7°F16.5°C 63.9°F17.7°C 86% Calm Calm -- 29.93 in1013.5 mb 0.00 in0.0 mm 0.00 in0.0 mm 0.00 in0.0 mm
01:31 AM 61.8°F16.6°C 64.2°F17.9°C 86% Calm Calm -- 29.91 in1012.9 mb 0.00 in0.0 mm 0.00 in0.0 mm 0.00 in0.0 mm
01:37 AM 61.7°F16.5°C 64.6°F18.1°C 87% 1.2 mph NNW1.9 kmh NNW 1.2 mph1.9 kmh 29.91 in1012.9 mb 0.00 in0.0 mm 0.00 in0.0 mm 0.00 in0.0 mm
01:40 AM 61.7°F16.5°C 64.3°F17.9°C 86% Calm Calm -- 29.90 in1012.5 mb 0.00 in0.0 mm 0.00 in0.0 mm 0.00 in0.0 mm
01:43 AM 61.6°F16.4°C 64.1°F17.8°C 86% Calm Calm -- 29.91 in1012.9 mb 0.00 in0.0 mm 0.00 in0.0 mm 0.00 in0.0 mm
01:46 AM 61.8°F16.6°C 64.7°F18.2°C 87% Calm Calm -- 29.91 in1012.9 mb 0.00 in0.0 mm 0.00 in0.0 mm 0.00 in0.0 mm
01:49 AM 62.0°F16.7°C 64.2°F17.9°C 86% Calm Calm -- 29.91 in1012.9 mb 0.00 in0.0 mm 0.00 in0.0 mm 0.00 in0.0 mm
01:52 AM 61.9°F16.6°C 64.4°F18.0°C 86% 0.8 mph NNE1.3 kmh NNE 0.8 mph1.3 kmh 29.91 in1012.9 mb 0.00 in0.0 mm 0.00 in0.0 mm 0.00 in0.0 mm
01:55 AM 62.2°F16.8°C 64.3°F17.9°C 86% 3.2 mph NW5.1 kmh NW 3.2 mph5.1 kmh 29.92 in1013.2 mb 0.00 in0.0 mm 0.00 in0.0 mm 0.00 in0.0 mm
01:58 AM 62.8°F17.1°C 64.5°F18.1°C 87% 2.0 mph NNW3.2 kmh NNW 2.0 mph3.2 kmh 29.92 in1013.2 mb 0.00 in0.0 mm 0.00 in0.0 mm 0.00 in0.0 mm
02:01 AM 62.9°F17.2°C 64.8°F18.2°C 87% 2.4 mph NW3.9 kmh NW 2.4 mph3.9 kmh 29.92 in1013.2 mb 0.00 in0.0 mm 0.00 in0.0 mm 0.00 in0.0 mm
02:04 AM 62.9°F17.2°C 64.7°F18.2°C 87% 0.4 mph WNW0.6 kmh WNW 0.4 mph0.6 kmh 29.93 in1013.5 mb 0.00 in0.0 mm 0.00 in0.0 mm 0.00 in0.0 mm
02:07 AM 63.3°F17.4°C 65.0°F18.3°C 86% Calm Calm -- 29.93 in1013.5 mb 0.00 in0.0 mm 0.00 in0.0 mm 0.00 in0.0 mm
02:10 AM 62.9°F17.2°C 65.1°F18.4°C 87% 0.4 mph NE0.6 kmh NE 0.4 mph0.6 kmh 29.92 in1013.2 mb 0.00 in0.0 mm 0.00 in0.0 mm 0.00 in0.0 mm
02:13 AM 62.9°F17.2°C 64.9°F18.3°C 87% Calm Calm -- 29.91 in1012.9 mb 0.00 in0.0 mm 0.00 in0.0 mm 0.00 in0.0 mm
02:16 AM 63.2°F17.3°C 65.3°F18.5°C 87% Calm Calm -- 29.92 in1013.2 mb 0.00 in0.0 mm 0.00 in0.0 mm 0.00 in0.0 mm
02:22 AM 62.9°F17.2°C 65.6°F18.7°C 88% Calm Calm -- 29.92 in1013.2 mb 0.00 in0.0 mm 0.00 in0.0 mm 0.00 in0.0 mm
02:25 AM 62.7°F17.1°C 65.4°F18.6°C 87% Calm Calm -- 29.92 in1013.2 mb 0.00 in0.0 mm 0.00 in0.0 mm 0.00 in0.0 mm
02:28 AM 63.1°F17.3°C 65.4°F18.6°C 87% Calm Calm -- 29.93 in1013.5 mb 0.00 in0.0 mm 0.00 in0.0 mm 0.00 in0.0 mm
02:31 AM 63.3°F17.4°C 65.4°F18.6°C 87% 0.8 mph NNW1.3 kmh NNW 0.8 mph1.3 kmh 29.93 in1013.5 mb 0.00 in0.0 mm 0.00 in0.0 mm 0.00 in0.0 mm
02:40 AM 63.3°F17.4°C 65.9°F18.8°C 88% Calm Calm -- 29.91 in1012.9 mb 0.00 in0.0 mm 0.00 in0.0 mm 0.00 in0.0 mm
02:43 AM 62.9°F17.2°C 66.0°F18.9°C 88% 0.4 mph SSW0.6 kmh SSW 0.4 mph0.6 kmh 29.91 in1012.9 mb 0.00 in0.0 mm 0.00 in0.0 mm 0.00 in0.0 mm
02:46 AM 62.6°F17.0°C 65.8°F18.8°C 88% Calm Calm -- 29.90 in1012.5 mb 0.00 in0.0 mm 0.00 in0.0 mm 0.00 in0.0 mm
02:52 AM 62.3°F16.8°C 65.2°F18.4°C 86% Calm Calm -- 29.89 in1012.2 mb 0.00 in0.0 mm 0.00 in0.0 mm 0.00 in0.0 mm
02:55 AM 62.2°F16.8°C 65.2°F18.4°C 86% Calm Calm -- 29.89 in1012.2 mb 0.00 in0.0 mm 0.00 in0.0 mm 0.00 in0.0 mm
02:58 AM 62.8°F17.1°C 65.2°F18.4°C 86% Calm Calm -- 29.89 in1012.2 mb 0.00 in0.0 mm 0.00 in0.0 mm 0.00 in0.0 mm
03:01 AM 62.7°F17.1°C 64.9°F18.3°C 86% Calm Calm -- 29.89 in1012.2 mb 0.00 in0.0 mm 0.00 in0.0 mm 0.00 in0.0 mm
03:04 AM 62.7°F17.1°C 65.0°F18.3°C 86% Calm Calm -- 29.89 in1012.2 mb 0.00 in0.0 mm 0.00 in0.0 mm 0.00 in0.0 mm
03:07 AM 62.5°F16.9°C 64.7°F18.2°C 86% Calm Calm -- 29.90 in1012.5 mb 0.00 in0.0 mm 0.00 in0.0 mm 0.00 in0.0 mm
03:10 AM 62.7°F17.1°C 64.5°F18.1°C 84% 0.4 mph NNW0.6 kmh NNW 0.4 mph0.6 kmh 29.91 in1012.9 mb 0.00 in0.0 mm 0.00 in0.0 mm 0.00 in0.0 mm
03:13 AM 63.4°F17.4°C 65.0°F18.3°C 86% Calm Calm -- 29.90 in1012.5 mb 0.00 in0.0 mm 0.00 in0.0 mm 0.02 in0.5 mm
03:16 AM 63.7°F17.6°C 65.9°F18.8°C 88% Calm Calm -- 29.90 in1012.5 mb 0.00 in0.0 mm 0.00 in0.0 mm 0.02 in0.5 mm
03:19 AM 63.5°F17.5°C 65.8°F18.8°C 88% Calm Calm -- 29.89 in1012.2 mb 0.00 in0.0 mm 0.00 in0.0 mm 0.02 in0.5 mm
03:28 AM 63.4°F17.4°C 65.6°F18.7°C 87% Calm Calm -- 29.88 in1011.9 mb 0.00 in0.0 mm 0.00 in0.0 mm 0.02 in0.5 mm
03:31 AM 63.3°F17.4°C 65.7°F18.7°C 87% Calm Calm -- 29.87 in1011.5 mb 0.00 in0.0 mm 0.00 in0.0 mm 0.02 in0.5 mm
03:34 AM 63.3°F17.4°C 65.4°F18.6°C 86% Calm Calm -- 29.88 in1011.9 mb 0.00 in0.0 mm 0.00 in0.0 mm 0.02 in0.5 mm
03:37 AM 63.3°F17.4°C 65.5°F18.6°C 86% Calm Calm -- 29.89 in1012.2 mb 0.00 in0.0 mm 0.00 in0.0 mm 0.02 in0.5 mm
03:40 AM 63.4°F17.4°C 65.8°F18.8°C 87% Calm Calm -- 29.89 in1012.2 mb 0.00 in0.0 mm 0.00 in0.0 mm 0.02 in0.5 mm
03:43 AM 63.5°F17.5°C 65.3°F18.5°C 85% 1.2 mph NW1.9 kmh NW 1.2 mph1.9 kmh 29.89 in1012.2 mb 0.00 in0.0 mm 0.00 in0.0 mm 0.02 in0.5 mm
03:46 AM 63.7°F17.6°C 65.6°F18.7°C 87% 1.2 mph W1.9 kmh W 1.2 mph1.9 kmh 29.89 in1012.2 mb 0.00 in0.0 mm 0.00 in0.0 mm 0.02 in0.5 mm
03:49 AM 64.0°F17.8°C 65.8°F18.8°C 87% 1.6 mph NNW2.6 kmh NNW 1.6 mph2.6 kmh 29.89 in1012.2 mb 0.00 in0.0 mm 0.00 in0.0 mm 0.02 in0.5 mm
03:52 AM 64.2°F17.9°C 65.8°F18.8°C 87% 0.4 mph NNW0.6 kmh NNW 0.4 mph0.6 kmh 29.89 in1012.2 mb 0.00 in0.0 mm 0.00 in0.0 mm 0.02 in0.5 mm
03:55 AM 64.0°F17.8°C 65.6°F18.7°C 86% Calm Calm -- 29.88 in1011.9 mb 0.00 in0.0 mm 0.00 in0.0 mm 0.02 in0.5 mm
03:58 AM 63.8°F17.7°C 65.8°F18.8°C 86% Calm Calm -- 29.88 in1011.9 mb 0.00 in0.0 mm 0.00 in0.0 mm 0.02 in0.5 mm
04:01 AM 63.8°F17.7°C 65.8°F18.8°C 86% 0.8 mph S1.3 kmh S 0.8 mph1.3 kmh 29.89 in1012.2 mb 0.00 in0.0 mm 0.00 in0.0 mm 0.02 in0.5 mm
04:04 AM 63.8°F17.7°C 65.9°F18.8°C 86% Calm Calm -- 29.89 in1012.2 mb 0.00 in0.0 mm 0.00 in0.0 mm 0.02 in0.5 mm
04:07 AM 63.8°F17.7°C 66.0°F18.9°C 87% 3.6 mph NNW5.8 kmh NNW 3.6 mph5.8 kmh 29.91 in1012.9 mb 0.00 in0.0 mm 0.00 in0.0 mm 0.02 in0.5 mm
04:10 AM 64.6°F18.1°C 66.3°F19.1°C 89% 13.6 mph NW21.9 kmh NW 13.6 mph21.9 kmh 29.98 in1015.2 mb 0.00 in0.0 mm 0.00 in0.0 mm 0.02 in0.5 mm
04:13 AM 66.4°F19.1°C 65.8°F18.8°C 87% 8.5 mph NNW13.7 kmh NNW 8.6 mph13.8 kmh 29.98 in1015.2 mb 0.00 in0.0 mm 0.00 in0.0 mm 0.02 in0.5 mm
04:16 AM 69.0°F20.6°C 65.4°F18.6°C 85% 10.1 mph NNW16.3 kmh NNW 10.2 mph16.4 kmh 29.98 in1015.2 mb 0.00 in0.0 mm 0.00 in0.0 mm 0.02 in0.5 mm
04:22 AM 64.5°F18.1°C 67.3°F19.6°C 86% 6.0 mph 9.7 kmh 6.0 mph9.7 kmh 29.99 in1015.6 mb 0.00 in0.0 mm 0.00 in0.0 mm 0.08 in2.0 mm
04:25 AM 64.4°F18.0°C 66.7°F19.3°C 86% 9.3 mph NNE15.0 kmh NNE 9.4 mph15.1 kmh 29.98 in1015.2 mb 0.00 in0.0 mm 0.00 in0.0 mm 0.14 in3.6 mm
04:28 AM 64.2°F17.9°C 67.5°F19.7°C 88% 3.2 mph NE5.1 kmh NE 3.3 mph5.3 kmh 29.98 in1015.2 mb 0.00 in0.0 mm 0.00 in0.0 mm 0.20 in5.1 mm
04:34 AM 64.1°F17.8°C 67.9°F19.9°C 87% 3.2 mph NNW5.1 kmh NNW 3.3 mph5.3 kmh 29.98 in1015.2 mb 0.00 in0.0 mm 0.00 in0.0 mm 0.20 in5.1 mm
04:37 AM 64.1°F17.8°C 67.4°F19.7°C 87% 1.6 mph 2.6 kmh 1.6 mph2.6 kmh 29.98 in1015.2 mb 0.00 in0.0 mm 0.00 in0.0 mm 0.20 in5.1 mm
04:40 AM 64.0°F17.8°C 67.3°F19.6°C 87% 0.8 mph 1.3 kmh 0.8 mph1.3 kmh 29.98 in1015.2 mb 0.00 in0.0 mm 0.00 in0.0 mm 0.20 in5.1 mm
04:43 AM 63.7°F17.6°C 67.5°F19.7°C 87% 0.4 mph ENE0.6 kmh ENE 0.4 mph0.6 kmh 29.98 in1015.2 mb 0.00 in0.0 mm 0.00 in0.0 mm 0.20 in5.1 mm
04:46 AM 63.8°F17.7°C 67.4°F19.7°C 87% Calm Calm -- 29.97 in1014.9 mb 0.00 in0.0 mm 0.00 in0.0 mm 0.20 in5.1 mm
04:52 AM 63.7°F17.6°C 67.5°F19.7°C 87% 2.4 mph E3.9 kmh E 2.4 mph3.9 kmh 29.96 in1014.6 mb 0.00 in0.0 mm 0.00 in0.0 mm 0.20 in5.1 mm
04:55 AM 63.8°F17.7°C 67.2°F19.6°C 87% 10.9 mph NE17.5 kmh NE 11.0 mph17.7 kmh 29.96 in1014.6 mb 0.00 in0.0 mm 0.00 in0.0 mm 0.20 in5.1 mm
04:58 AM 63.7°F17.6°C 67.0°F19.4°C 87% 10.9 mph ENE17.5 kmh ENE 10.9 mph17.5 kmh 29.97 in1014.9 mb 0.00 in0.0 mm 0.00 in0.0 mm 0.20 in5.1 mm
05:01 AM 63.6°F17.6°C 66.3°F19.1°C 87% 17.0 mph ENE27.4 kmh ENE 17.1 mph27.5 kmh 29.97 in1014.9 mb 0.00 in0.0 mm 0.00 in0.0 mm 0.20 in5.1 mm
05:04 AM 63.4°F17.4°C 66.2°F19.0°C 86% 11.8 mph NE19.0 kmh NE 11.8 mph19.0 kmh 29.96 in1014.6 mb 0.00 in0.0 mm 0.00 in0.0 mm 0.20 in5.1 mm
05:07 AM 63.3°F17.4°C 66.4°F19.1°C 87% 5.2 mph ENE8.4 kmh ENE 5.3 mph8.5 kmh 29.96 in1014.6 mb 0.00 in0.0 mm 0.00 in0.0 mm 0.20 in5.1 mm
05:10 AM 63.1°F17.3°C 66.6°F19.2°C 86% 7.3 mph ENE11.7 kmh ENE 7.3 mph11.7 kmh 29.96 in1014.6 mb 0.00 in0.0 mm 0.00 in0.0 mm 0.20 in5.1 mm
05:13 AM 63.1°F17.3°C 66.4°F19.1°C 86% 8.3 mph ESE13.4 kmh ESE 8.4 mph13.5 kmh 29.96 in1014.6 mb 0.00 in0.0 mm 0.00 in0.0 mm 0.20 in5.1 mm
05:16 AM 63.1°F17.3°C 65.8°F18.8°C 85% 17.4 mph NE28.0 kmh NE 17.5 mph28.2 kmh 29.96 in1014.6 mb 0.00 in0.0 mm 0.00 in0.0 mm 0.20 in5.1 mm
05:19 AM 62.9°F17.2°C 66.2°F19.0°C 86% 6.7 mph NE10.8 kmh NE 6.8 mph10.9 kmh 29.96 in1014.6 mb 0.00 in0.0 mm 0.00 in0.0 mm 0.20 in5.1 mm
05:22 AM 63.1°F17.3°C 66.4°F19.1°C 87% 5.3 mph E8.5 kmh E 5.3 mph8.5 kmh 29.95 in1014.2 mb 0.00 in0.0 mm 0.00 in0.0 mm 0.20 in5.1 mm
05:25 AM 62.9°F17.2°C 66.5°F19.2°C 86% 4.4 mph ESE7.1 kmh ESE 4.4 mph7.1 kmh 29.95 in1014.2 mb 0.00 in0.0 mm 0.00 in0.0 mm 0.20 in5.1 mm
05:28 AM 62.8°F17.1°C 66.4°F19.1°C 86% 4.0 mph E6.4 kmh E 4.1 mph6.6 kmh 29.96 in1014.6 mb 0.00 in0.0 mm 0.00 in0.0 mm 0.20 in5.1 mm
05:31 AM 62.8°F17.1°C 66.4°F19.1°C 86% 11.7 mph ENE18.8 kmh ENE 11.8 mph19.0 kmh 29.94 in1013.9 mb 0.00 in0.0 mm 0.00 in0.0 mm 0.20 in5.1 mm
05:34 AM 62.9°F17.2°C 66.0°F18.9°C 86% 8.1 mph ENE13.0 kmh ENE 8.1 mph13.0 kmh 29.94 in1013.9 mb 0.00 in0.0 mm 0.00 in0.0 mm 0.20 in5.1 mm
05:37 AM 62.9°F17.2°C 66.3°F19.1°C 87% 4.2 mph NE6.8 kmh NE 4.2 mph6.8 kmh 29.95 in1014.2 mb 0.00 in0.0 mm 0.00 in0.0 mm 0.20 in5.1 mm
05:40 AM 63.3°F17.4°C 66.3°F19.1°C 86% 12.1 mph SE19.5 kmh SE 12.1 mph19.5 kmh 29.95 in1014.2 mb 0.00 in0.0 mm 0.00 in0.0 mm 0.20 in5.1 mm
05:46 AM 64.3°F17.9°C 66.1°F18.9°C 86% 4.8 mph E7.7 kmh E 4.9 mph7.9 kmh 29.96 in1014.6 mb 0.00 in0.0 mm 0.00 in0.0 mm 0.20 in5.1 mm
05:49 AM 64.4°F18.0°C 66.3°F19.1°C 85% 3.6 mph NNE5.8 kmh NNE 3.6 mph5.8 kmh 29.96 in1014.6 mb 0.00 in0.0 mm 0.00 in0.0 mm 0.20 in5.1 mm
05:52 AM 64.7°F18.2°C 66.1°F18.9°C 85% 6.9 mph NE11.1 kmh NE 6.9 mph11.1 kmh 29.97 in1014.9 mb 0.00 in0.0 mm 0.00 in0.0 mm 0.20 in5.1 mm
05:58 AM 64.9°F18.3°C 66.2°F19.0°C 85% 4.8 mph NNW7.7 kmh NNW 4.8 mph7.7 kmh 29.98 in1015.2 mb 0.00 in0.0 mm 0.00 in0.0 mm 0.20 in5.1 mm
06:01 AM 64.7°F18.2°C 66.1°F18.9°C 85% 9.3 mph NE15.0 kmh NE 9.3 mph15.0 kmh 29.98 in1015.2 mb 0.00 in0.0 mm 0.00 in0.0 mm 0.20 in5.1 mm
06:04 AM 65.1°F18.4°C 66.1°F18.9°C 86% 9.7 mph NE15.6 kmh NE 9.8 mph15.8 kmh 29.99 in1015.6 mb 0.00 in0.0 mm 0.00 in0.0 mm 0.20 in5.1 mm
06:07 AM 65.1°F18.4°C 66.0°F18.9°C 84% 8.5 mph NE13.7 kmh NE 8.6 mph13.8 kmh 29.99 in1015.6 mb 0.00 in0.0 mm 0.00 in0.0 mm 0.20 in5.1 mm
06:10 AM 65.1°F18.4°C 66.2°F19.0°C 85% 2.4 mph NNW3.9 kmh NNW 2.4 mph3.9 kmh 29.99 in1015.6 mb 0.00 in0.0 mm 0.00 in0.0 mm 0.20 in5.1 mm
06:13 AM 65.4°F18.6°C 66.3°F19.1°C 84% 5.4 mph ENE8.7 kmh ENE 5.4 mph8.7 kmh 30.00 in1015.9 mb 0.00 in0.0 mm 0.00 in0.0 mm 0.20 in5.1 mm
06:16 AM 65.5°F18.6°C 66.2°F19.0°C 84% 2.8 mph NNE4.5 kmh NNE 2.8 mph4.5 kmh 29.98 in1015.2 mb 0.00 in0.0 mm 0.00 in0.0 mm 0.20 in5.1 mm
06:22 AM 65.8°F18.8°C 65.9°F18.8°C 83% 4.4 mph NNW7.1 kmh NNW 4.5 mph7.2 kmh 29.98 in1015.2 mb 0.00 in0.0 mm 0.00 in0.0 mm 0.20 in5.1 mm
06:25 AM 66.0°F18.9°C 65.8°F18.8°C 82% 2.4 mph ESE3.9 kmh ESE 2.4 mph3.9 kmh 29.98 in1015.2 mb 0.00 in0.0 mm 0.00 in0.0 mm 0.20 in5.1 mm
06:31 AM 65.9°F18.8°C 66.2°F19.0°C 82% 2.8 mph NW4.5 kmh NW 2.9 mph4.7 kmh 29.98 in1015.2 mb 0.00 in0.0 mm 0.00 in0.0 mm 0.20 in5.1 mm
06:34 AM 66.2°F19.0°C 65.9°F18.8°C 82% 3.1 mph W5.0 kmh W 3.1 mph5.0 kmh 29.98 in1015.2 mb 0.00 in0.0 mm 0.00 in0.0 mm 0.20 in5.1 mm
06:37 AM 66.3°F19.1°C 66.2°F19.0°C 82% 2.4 mph NNW3.9 kmh NNW 2.4 mph3.9 kmh 29.98 in1015.2 mb 0.00 in0.0 mm 0.00 in0.0 mm 0.20 in5.1 mm
06:40 AM 66.7°F19.3°C 66.6°F19.2°C 83% 4.8 mph WNW7.7 kmh WNW 4.9 mph7.9 kmh 29.97 in1014.9 mb 0.00 in0.0 mm 0.00 in0.0 mm 0.20 in5.1 mm
06:43 AM 66.9°F19.4°C 66.5°F19.2°C 82% 4.0 mph 6.4 kmh 4.0 mph6.4 kmh 29.97 in1014.9 mb 0.00 in0.0 mm 0.00 in0.0 mm 0.20 in5.1 mm
06:46 AM 67.2°F19.6°C 67.2°F19.6°C 84% 4.8 mph 7.7 kmh 4.8 mph7.7 kmh 29.98 in1015.2 mb 0.00 in0.0 mm 0.00 in0.0 mm 0.20 in5.1 mm
06:49 AM 67.6°F19.8°C 66.5°F19.2°C 81% 2.0 mph NW3.2 kmh NW 2.0 mph3.2 kmh 29.97 in1014.9 mb 0.00 in0.0 mm 0.00 in0.0 mm 0.20 in5.1 mm
06:52 AM 67.3°F19.6°C 66.1°F18.9°C 81% 0.4 mph ENE0.6 kmh ENE 0.4 mph0.6 kmh 29.97 in1014.9 mb 0.00 in0.0 mm 0.00 in0.0 mm 0.20 in5.1 mm
06:58 AM 67.8°F19.9°C 66.4°F19.1°C 80% 3.6 mph NE5.8 kmh NE 3.6 mph5.8 kmh 29.98 in1015.2 mb 0.00 in0.0 mm 0.00 in0.0 mm 0.20 in5.1 mm
07:01 AM 67.8°F19.9°C 66.4°F19.1°C 80% 1.2 mph WSW1.9 kmh WSW 1.2 mph1.9 kmh 29.98 in1015.2 mb 0.00 in0.0 mm 0.00 in0.0 mm 0.20 in5.1 mm
07:04 AM 67.9°F19.9°C 66.2°F19.0°C 80% 3.6 mph NNW5.8 kmh NNW 3.7 mph6.0 kmh 29.98 in1015.2 mb 0.00 in0.0 mm 0.00 in0.0 mm 0.20 in5.1 mm
07:10 AM 67.9°F19.9°C 66.8°F19.3°C 80% 0.4 mph NNW0.6 kmh NNW 0.4 mph0.6 kmh 29.98 in1015.2 mb 0.00 in0.0 mm 0.00 in0.0 mm 0.20 in5.1 mm
07:13 AM 68.3°F20.2°C 66.4°F19.1°C 80% 1.9 mph NW3.1 kmh NW 1.9 mph3.1 kmh 29.98 in1015.2 mb 0.00 in0.0 mm 0.00 in0.0 mm 0.20 in5.1 mm
07:16 AM 68.5°F20.3°C 66.8°F19.3°C 81% 1.6 mph NW2.6 kmh NW 1.6 mph2.6 kmh 29.98 in1015.2 mb 0.00 in0.0 mm 0.00 in0.0 mm 0.20 in5.1 mm
07:19 AM 68.6°F20.3°C 67.0°F19.4°C 81% 1.2 mph SW1.9 kmh SW 1.2 mph1.9 kmh 29.98 in1015.2 mb 0.00 in0.0 mm 0.00 in0.0 mm 0.20 in5.1 mm
07:25 AM 68.5°F20.3°C 66.9°F19.4°C 80% 0.8 mph S1.3 kmh S 0.8 mph1.3 kmh 29.98 in1015.2 mb 0.00 in0.0 mm 0.00 in0.0 mm 0.20 in5.1 mm
07:28 AM 68.7°F20.4°C 67.6°F19.8°C 81% 1.6 mph S2.6 kmh S 1.6 mph2.6 kmh 29.98 in1015.2 mb 0.00 in0.0 mm 0.00 in0.0 mm 0.20 in5.1 mm
07:31 AM 69.2°F20.7°C 67.4°F19.7°C 80% 0.8 mph S1.3 kmh S 0.8 mph1.3 kmh 29.98 in1015.2 mb 0.00 in0.0 mm 0.00 in0.0 mm 0.20 in5.1 mm
07:37 AM 69.9°F21.1°C 68.1°F20.1°C 81% Calm Calm -- 29.99 in1015.6 mb 0.00 in0.0 mm 0.00 in0.0 mm 0.20 in5.1 mm
07:40 AM 69.8°F21.0°C 67.9°F19.9°C 80% Calm Calm -- 29.98 in1015.2 mb 0.00 in0.0 mm 0.00 in0.0 mm 0.20 in5.1 mm
07:43 AM 70.1°F21.2°C 68.1°F20.1°C 81% Calm Calm -- 29.98 in1015.2 mb 0.00 in0.0 mm 0.00 in0.0 mm 0.20 in5.1 mm
07:46 AM 70.1°F21.2°C 68.2°F20.1°C 80% 2.8 mph SE4.5 kmh SE 2.9 mph4.7 kmh 29.98 in1015.2 mb 0.00 in0.0 mm 0.00 in0.0 mm 0.20 in5.1 mm
07:49 AM 69.8°F21.0°C 67.3°F19.6°C 78% 1.2 mph ESE1.9 kmh ESE 1.2 mph1.9 kmh 29.99 in1015.6 mb 0.00 in0.0 mm 0.00 in0.0 mm 0.20 in5.1 mm
07:52 AM 69.8°F21.0°C 66.9°F19.4°C 77% 0.4 mph NNW0.6 kmh NNW 0.4 mph0.6 kmh 29.98 in1015.2 mb 0.00 in0.0 mm 0.00 in0.0 mm 0.20 in5.1 mm
07:55 AM 70.3°F21.3°C 67.2°F19.6°C 77% 0.4 mph ESE0.6 kmh ESE 0.4 mph0.6 kmh 29.99 in1015.6 mb 0.00 in0.0 mm 0.00 in0.0 mm 0.20 in5.1 mm
08:01 AM 70.8°F21.6°C 67.6°F19.8°C 77% 0.8 mph SE1.3 kmh SE 0.8 mph1.3 kmh 29.98 in1015.2 mb 0.00 in0.0 mm 0.00 in0.0 mm 0.20 in5.1 mm
08:04 AM 70.8°F21.6°C 67.4°F19.7°C 77% 2.0 mph S3.2 kmh S 2.0 mph3.2 kmh 29.98 in1015.2 mb 0.00 in0.0 mm 0.00 in0.0 mm 0.20 in5.1 mm
08:07 AM 71.2°F21.8°C 67.9°F19.9°C 77% 2.4 mph SE3.9 kmh SE 2.4 mph3.9 kmh 29.98 in1015.2 mb 0.00 in0.0 mm 0.00 in0.0 mm 0.20 in5.1 mm
08:10 AM 71.3°F21.8°C 67.6°F19.8°C 77% 1.2 mph SE1.9 kmh SE 1.2 mph1.9 kmh 29.98 in1015.2 mb 0.00 in0.0 mm 0.00 in0.0 mm 0.20 in5.1 mm
08:13 AM 71.3°F21.8°C 67.4°F19.7°C 76% 2.3 mph SSE3.7 kmh SSE 2.3 mph3.7 kmh 29.98 in1015.2 mb 0.00 in0.0 mm 0.00 in0.0 mm 0.20 in5.1 mm
08:16 AM 71.7°F22.1°C 67.7°F19.8°C 77% 3.2 mph SE5.1 kmh SE 3.3 mph5.3 kmh 29.98 in1015.2 mb 0.00 in0.0 mm 0.00 in0.0 mm 0.20 in5.1 mm
08:19 AM 71.8°F22.1°C 68.8°F20.4°C 79% 2.8 mph NE4.5 kmh NE 2.9 mph4.7 kmh 29.98 in1015.2 mb 0.00 in0.0 mm 0.00 in0.0 mm 0.20 in5.1 mm
08:22 AM 72.3°F22.4°C 68.3°F20.2°C 78% 2.0 mph SSE3.2 kmh SSE 2.0 mph3.2 kmh 29.98 in1015.2 mb 0.00 in0.0 mm 0.00 in0.0 mm 0.20 in5.1 mm
08:25 AM 72.3°F22.4°C 67.6°F19.8°C 75% 2.8 mph SSE4.5 kmh SSE 2.8 mph4.5 kmh 29.98 in1015.2 mb 0.00 in0.0 mm 0.00 in0.0 mm 0.20 in5.1 mm
08:28 AM 72.4°F22.4°C 68.5°F20.3°C 76% 1.2 mph SSE1.9 kmh SSE 1.2 mph1.9 kmh 29.98 in1015.2 mb 0.00 in0.0 mm 0.00 in0.0 mm 0.20 in5.1 mm
08:31 AM 72.8°F22.7°C 69.1°F20.6°C 77% 1.6 mph SE2.6 kmh SE 1.6 mph2.6 kmh 29.98 in1015.2 mb 0.00 in0.0 mm 0.00 in0.0 mm 0.20 in5.1 mm
08:34 AM 73.1°F22.8°C 68.3°F20.2°C 75% 2.4 mph SSE3.9 kmh SSE 2.4 mph3.9 kmh 29.98 in1015.2 mb 0.00 in0.0 mm 0.00 in0.0 mm 0.20 in5.1 mm
08:37 AM 73.2°F22.9°C 68.3°F20.2°C 75% 3.2 mph SSE5.1 kmh SSE 3.2 mph5.1 kmh 29.98 in1015.2 mb 0.00 in0.0 mm 0.00 in0.0 mm 0.20 in5.1 mm
08:40 AM 73.1°F22.8°C 68.8°F20.4°C 75% 1.2 mph SSE1.9 kmh SSE 1.2 mph1.9 kmh 29.98 in1015.2 mb 0.00 in0.0 mm 0.00 in0.0 mm 0.20 in5.1 mm
08:43 AM 72.7°F22.6°C 68.8°F20.4°C 75% 1.2 mph SE1.9 kmh SE 1.2 mph1.9 kmh 29.98 in1015.2 mb 0.00 in0.0 mm 0.00 in0.0 mm 0.20 in5.1 mm
08:46 AM 73.4°F23.0°C 69.6°F20.9°C 77% 2.4 mph NNW3.9 kmh NNW 2.4 mph3.9 kmh 29.97 in1014.9 mb 0.00 in0.0 mm 0.00 in0.0 mm 0.20 in5.1 mm
08:49 AM 73.3°F22.9°C 69.2°F20.7°C 75% 2.4 mph SE3.9 kmh SE 2.4 mph3.9 kmh 29.98 in1015.2 mb 0.00 in0.0 mm 0.00 in0.0 mm 0.20 in5.1 mm
08:52 AM 72.3°F22.4°C 67.8°F19.9°C 73% 3.2 mph SSE5.1 kmh SSE 3.3 mph5.3 kmh 29.97 in1014.9 mb 0.00 in0.0 mm 0.00 in0.0 mm 0.20 in5.1 mm
08:55 AM 71.7°F22.1°C 68.1°F20.1°C 73% 2.0 mph SSE3.2 kmh SSE 2.0 mph3.2 kmh 29.97 in1014.9 mb 0.00 in0.0 mm 0.00 in0.0 mm 0.20 in5.1 mm
08:58 AM 72.4°F22.4°C 67.5°F19.7°C 73% 3.2 mph SE5.1 kmh SE 3.3 mph5.3 kmh 29.97 in1014.9 mb 0.00 in0.0 mm 0.00 in0.0 mm 0.20 in5.1 mm
09:01 AM 73.1°F22.8°C 68.3°F20.2°C 74% 2.8 mph SSE4.5 kmh SSE 2.8 mph4.5 kmh 29.97 in1014.9 mb 0.00 in0.0 mm 0.00 in0.0 mm 0.20 in5.1 mm
09:04 AM 72.4°F22.4°C 68.2°F20.1°C 73% 2.8 mph NNW4.5 kmh NNW 2.8 mph4.5 kmh 29.97 in1014.9 mb 0.00 in0.0 mm 0.00 in0.0 mm 0.20 in5.1 mm
09:07 AM 72.8°F22.7°C 68.5°F20.3°C 74% 3.6 mph SSE5.8 kmh SSE 3.7 mph6.0 kmh 29.97 in1014.9 mb 0.00 in0.0 mm 0.00 in0.0 mm 0.20 in5.1 mm
09:10 AM 72.8°F22.7°C 68.5°F20.3°C 74% 2.4 mph SE3.9 kmh SE 2.4 mph3.9 kmh 29.97 in1014.9 mb 0.00 in0.0 mm 0.00 in0.0 mm 0.20 in5.1 mm
09:13 AM 73.3°F22.9°C 69.2°F20.7°C 75% 2.0 mph ESE3.2 kmh ESE 2.0 mph3.2 kmh 29.97 in1014.9 mb 0.00 in0.0 mm 0.00 in0.0 mm 0.20 in5.1 mm
09:16 AM 73.5°F23.1°C 69.0°F20.6°C 74% 2.0 mph SE3.2 kmh SE 2.0 mph3.2 kmh 29.97 in1014.9 mb 0.00 in0.0 mm 0.00 in0.0 mm 0.20 in5.1 mm
09:22 AM 73.7°F23.2°C 68.3°F20.2°C 72% 2.4 mph SE3.9 kmh SE 2.4 mph3.9 kmh 29.97 in1014.9 mb 0.00 in0.0 mm 0.00 in0.0 mm 0.20 in5.1 mm
09:25 AM 73.9°F23.3°C 68.7°F20.4°C 72% 2.0 mph ESE3.2 kmh ESE 2.0 mph3.2 kmh 29.97 in1014.9 mb 0.00 in0.0 mm 0.00 in0.0 mm 0.20 in5.1 mm
09:28 AM 74.2°F23.4°C 69.1°F20.6°C 73% 2.0 mph S3.2 kmh S 2.0 mph3.2 kmh 29.97 in1014.9 mb 0.00 in0.0 mm 0.00 in0.0 mm 0.20 in5.1 mm
09:31 AM 74.2°F23.4°C 69.6°F20.9°C 74% 2.4 mph SE3.9 kmh SE 2.4 mph3.9 kmh 29.97 in1014.9 mb 0.00 in0.0 mm 0.00 in0.0 mm 0.20 in5.1 mm
09:37 AM 74.5°F23.6°C 70.1°F21.2°C 74% 1.6 mph SSE2.6 kmh SSE 1.6 mph2.6 kmh 29.97 in1014.9 mb 0.00 in0.0 mm 0.00 in0.0 mm 0.20 in5.1 mm
09:40 AM 74.8°F23.8°C 70.0°F21.1°C 73% 1.2 mph S1.9 kmh S 1.2 mph1.9 kmh 29.97 in1014.9 mb 0.00 in0.0 mm 0.00 in0.0 mm 0.20 in5.1 mm
09:43 AM 74.9°F23.8°C 70.4°F21.3°C 74% 4.0 mph S6.4 kmh S 4.0 mph6.4 kmh 29.97 in1014.9 mb 0.00 in0.0 mm 0.00 in0.0 mm 0.20 in5.1 mm
09:49 AM 75.8°F24.3°C 70.5°F21.4°C 73% 1.2 mph SSE1.9 kmh SSE 1.2 mph1.9 kmh 29.98 in1015.2 mb 0.00 in0.0 mm 0.00 in0.0 mm 0.20 in5.1 mm
09:52 AM 76.2°F24.6°C 69.8°F21.0°C 72% Calm Calm -- 29.98 in1015.2 mb 0.00 in0.0 mm 0.00 in0.0 mm 0.20 in5.1 mm
09:55 AM 76.6°F24.8°C 70.5°F21.4°C 72% 1.6 mph SW2.6 kmh SW 1.6 mph2.6 kmh 29.98 in1015.2 mb 0.00 in0.0 mm 0.00 in0.0 mm 0.20 in5.1 mm
09:58 AM 76.9°F24.9°C 70.5°F21.4°C 71% 0.8 mph WNW1.3 kmh WNW 0.8 mph1.3 kmh 29.98 in1015.2 mb 0.00 in0.0 mm 0.00 in0.0 mm 0.20 in5.1 mm
10:01 AM 77.1°F25.1°C 70.6°F21.4°C 71% Calm Calm -- 29.98 in1015.2 mb 0.00 in0.0 mm 0.00 in0.0 mm 0.20 in5.1 mm
10:07 AM 77.3°F25.2°C 71.0°F21.7°C 70% 1.2 mph NNW1.9 kmh NNW 1.2 mph1.9 kmh 29.98 in1015.2 mb 0.00 in0.0 mm 0.00 in0.0 mm 0.20 in5.1 mm
10:10 AM 77.5°F25.3°C 71.1°F21.7°C 69% Calm Calm -- 29.98 in1015.2 mb 0.00 in0.0 mm 0.00 in0.0 mm 0.20 in5.1 mm
10:13 AM 77.7°F25.4°C 71.2°F21.8°C 68% 1.2 mph W1.9 kmh W 1.2 mph1.9 kmh 29.98 in1015.2 mb 0.00 in0.0 mm 0.00 in0.0 mm 0.20 in5.1 mm
10:16 AM 78.2°F25.7°C 71.9°F22.2°C 69% 2.4 mph NNW3.9 kmh NNW 2.4 mph3.9 kmh 29.98 in1015.2 mb 0.00 in0.0 mm 0.00 in0.0 mm 0.20 in5.1 mm
10:19 AM 78.1°F25.6°C 72.0°F22.2°C 68% Calm Calm -- 29.98 in1015.2 mb 0.00 in0.0 mm 0.00 in0.0 mm 0.20 in5.1 mm
10:25 AM 78.6°F25.9°C 72.1°F22.3°C 68% 1.6 mph WNW2.6 kmh WNW 1.6 mph2.6 kmh 29.98 in1015.2 mb 0.00 in0.0 mm 0.00 in0.0 mm 0.20 in5.1 mm
10:28 AM 78.9°F26.1°C 72.7°F22.6°C 67% Calm Calm -- 29.98 in1015.2 mb 0.00 in0.0 mm 0.00 in0.0 mm 0.20 in5.1 mm
10:34 AM 78.6°F25.9°C 73.3°F22.9°C 66% 0.4 mph NNW0.6 kmh NNW 0.4 mph0.6 kmh 29.98 in1015.2 mb 0.00 in0.0 mm 0.00 in0.0 mm 0.20 in5.1 mm
10:37 AM 78.2°F25.7°C 71.5°F21.9°C 62% Calm Calm -- 29.98 in1015.2 mb 0.00 in0.0 mm 0.00 in0.0 mm 0.20 in5.1 mm
10:40 AM 78.8°F26.0°C 72.2°F22.3°C 64% 1.2 mph NNE1.9 kmh NNE 1.2 mph1.9 kmh 29.98 in1015.2 mb 0.00 in0.0 mm 0.00 in0.0 mm 0.20 in5.1 mm
10:43 AM 79.8°F26.6°C 73.8°F23.2°C 65% 1.2 mph SW1.9 kmh SW 1.2 mph1.9 kmh 29.98 in1015.2 mb 0.00 in0.0 mm 0.00 in0.0 mm 0.20 in5.1 mm
10:46 AM 79.8°F26.6°C 73.6°F23.1°C 63% 1.2 mph SW1.9 kmh SW 1.2 mph1.9 kmh 29.98 in1015.2 mb 0.00 in0.0 mm 0.00 in0.0 mm 0.20 in5.1 mm
10:49 AM 79.7°F26.5°C 74.4°F23.6°C 64% 0.4 mph NNW0.6 kmh NNW 0.4 mph0.6 kmh 29.98 in1015.2 mb 0.00 in0.0 mm 0.00 in0.0 mm 0.20 in5.1 mm
10:52 AM 79.8°F26.6°C 74.0°F23.3°C 63% 0.4 mph SW0.6 kmh SW 0.4 mph0.6 kmh 29.98 in1015.2 mb 0.00 in0.0 mm 0.00 in0.0 mm 0.20 in5.1 mm
10:55 AM 79.8°F26.6°C 73.6°F23.1°C 63% 1.6 mph SSW2.6 kmh SSW 1.6 mph2.6 kmh 29.98 in1015.2 mb 0.00 in0.0 mm 0.00 in0.0 mm 0.20 in5.1 mm
10:58 AM 80.4°F26.9°C 73.5°F23.1°C 62% 3.2 mph NNW5.1 kmh NNW 3.3 mph5.3 kmh 29.98 in1015.2 mb 0.00 in0.0 mm 0.00 in0.0 mm 0.20 in5.1 mm
11:01 AM 80.3°F26.8°C 73.8°F23.2°C 62% 1.6 mph SW2.6 kmh SW 1.6 mph2.6 kmh 29.98 in1015.2 mb 0.00 in0.0 mm 0.00 in0.0 mm 0.20 in5.1 mm
11:07 AM 79.8°F26.6°C 74.3°F23.5°C 62% 0.8 mph SSW1.3 kmh SSW 0.8 mph1.3 kmh 29.98 in1015.2 mb 0.00 in0.0 mm 0.00 in0.0 mm 0.20 in5.1 mm
11:10 AM 80.8°F27.1°C 75.7°F24.3°C 63% 0.8 mph NNW1.3 kmh NNW 0.8 mph1.3 kmh 29.98 in1015.2 mb 0.00 in0.0 mm 0.00 in0.0 mm 0.20 in5.1 mm
11:16 AM 80.5°F26.9°C 73.7°F23.2°C 59% 0.8 mph S1.3 kmh S 0.8 mph1.3 kmh 29.98 in1015.2 mb 0.00 in0.0 mm 0.00 in0.0 mm 0.20 in5.1 mm
11:19 AM 80.9°F27.2°C 74.8°F23.8°C 61% 0.4 mph NNW0.6 kmh NNW 0.4 mph0.6 kmh 29.97 in1014.9 mb 0.00 in0.0 mm 0.00 in0.0 mm 0.20 in5.1 mm
11:22 AM 81.3°F27.4°C 74.8°F23.8°C 59% 1.2 mph NNW1.9 kmh NNW 1.2 mph1.9 kmh 29.97 in1014.9 mb 0.00 in0.0 mm 0.00 in0.0 mm 0.20 in5.1 mm
11:25 AM 81.7°F27.6°C 74.9°F23.8°C 59% 1.6 mph WNW2.6 kmh WNW 1.6 mph2.6 kmh 29.98 in1015.2 mb 0.00 in0.0 mm 0.00 in0.0 mm 0.20 in5.1 mm
11:28 AM 81.5°F27.5°C 73.6°F23.1°C 56% 3.2 mph NNW5.1 kmh NNW 3.3 mph5.3 kmh 29.98 in1015.2 mb 0.00 in0.0 mm 0.00 in0.0 mm 0.20 in5.1 mm
11:31 AM 80.9°F27.2°C 74.4°F23.6°C 57% Calm Calm -- 29.98 in1015.2 mb 0.00 in0.0 mm 0.00 in0.0 mm 0.20 in5.1 mm
11:34 AM 81.8°F27.7°C 73.5°F23.1°C 55% 4.0 mph NW6.4 kmh NW 4.0 mph6.4 kmh 29.98 in1015.2 mb 0.00 in0.0 mm 0.00 in0.0 mm 0.20 in5.1 mm
11:40 AM 81.4°F27.4°C 73.7°F23.2°C 54% 1.2 mph ENE1.9 kmh ENE 1.2 mph1.9 kmh 29.98 in1015.2 mb 0.00 in0.0 mm 0.00 in0.0 mm 0.20 in5.1 mm
11:43 AM 82.1°F27.8°C 75.6°F24.2°C 57% Calm Calm -- 29.98 in1015.2 mb 0.00 in0.0 mm 0.00 in0.0 mm 0.20 in5.1 mm
11:46 AM 82.3°F27.9°C 74.5°F23.6°C 55% 1.2 mph NNW1.9 kmh NNW 1.2 mph1.9 kmh 29.97 in1014.9 mb 0.00 in0.0 mm 0.00 in0.0 mm 0.20 in5.1 mm
11:49 AM 82.2°F27.9°C 74.3°F23.5°C 54% 2.0 mph NNW3.2 kmh NNW 2.0 mph3.2 kmh 29.98 in1015.2 mb 0.00 in0.0 mm 0.00 in0.0 mm 0.20 in5.1 mm
11:55 AM 82.6°F28.1°C 74.8°F23.8°C 54% 0.4 mph NW0.6 kmh NW 0.4 mph0.6 kmh 29.98 in1015.2 mb 0.00 in0.0 mm 0.00 in0.0 mm 0.20 in5.1 mm
11:58 AM 81.7°F27.6°C 74.1°F23.4°C 53% 4.4 mph 7.1 kmh 4.5 mph7.2 kmh 29.97 in1014.9 mb 0.00 in0.0 mm 0.00 in0.0 mm 0.20 in5.1 mm
12:04 PM 82.1°F27.8°C 74.5°F23.6°C 54% 4.0 mph NE6.4 kmh NE 4.0 mph6.4 kmh 29.98 in1015.2 mb 0.00 in0.0 mm 0.00 in0.0 mm 0.20 in5.1 mm
12:10 PM 82.4°F28.0°C 75.1°F23.9°C 55% 3.6 mph NNW5.8 kmh NNW 3.6 mph5.8 kmh 29.97 in1014.9 mb 0.00 in0.0 mm 0.00 in0.0 mm 0.20 in5.1 mm
12:16 PM 82.4°F28.0°C 73.6°F23.1°C 51% Calm Calm -- 29.97 in1014.9 mb 0.00 in0.0 mm 0.00 in0.0 mm 0.20 in5.1 mm
12:19 PM 83.4°F28.6°C 75.4°F24.1°C 54% Calm Calm -- 29.96 in1014.6 mb 0.00 in0.0 mm 0.00 in0.0 mm 0.20 in5.1 mm
12:22 PM 83.5°F28.6°C 75.4°F24.1°C 54% Calm Calm -- 29.97 in1014.9 mb 0.00 in0.0 mm 0.00 in0.0 mm 0.20 in5.1 mm
12:25 PM 84.4°F29.1°C 76.6°F24.8°C 56% 0.4 mph ESE0.6 kmh ESE 0.4 mph0.6 kmh 29.96 in1014.6 mb 0.00 in0.0 mm 0.00 in0.0 mm 0.20 in5.1 mm
12:28 PM 84.8°F29.3°C 76.2°F24.6°C 55% Calm Calm -- 29.96 in1014.6 mb 0.00 in0.0 mm 0.00 in0.0 mm 0.20 in5.1 mm
12:34 PM 84.4°F29.1°C 75.6°F24.2°C 52% 2.4 mph NNE3.9 kmh NNE 2.4 mph3.9 kmh 29.96 in1014.6 mb 0.00 in0.0 mm 0.00 in0.0 mm 0.20 in5.1 mm
12:37 PM 84.8°F29.3°C 75.9°F24.4°C 53% 2.4 mph NE3.9 kmh NE 2.4 mph3.9 kmh 29.96 in1014.6 mb 0.00 in0.0 mm 0.00 in0.0 mm 0.20 in5.1 mm
12:40 PM 86.2°F30.1°C 73.9°F23.3°C 50% Calm Calm -- 29.96 in1014.6 mb 0.00 in0.0 mm 0.00 in0.0 mm 0.20 in5.1 mm
12:43 PM 86.7°F30.4°C 74.9°F23.8°C 50% 1.2 mph NNW1.9 kmh NNW 1.2 mph1.9 kmh 29.96 in1014.6 mb 0.00 in0.0 mm 0.00 in0.0 mm 0.20 in5.1 mm
12:49 PM 86.1°F30.1°C 72.8°F22.7°C 47% 3.2 mph NNW5.1 kmh NNW 3.2 mph5.1 kmh 29.96 in1014.6 mb 0.00 in0.0 mm 0.00 in0.0 mm 0.20 in5.1 mm
12:52 PM 84.9°F29.4°C 71.2°F21.8°C 44% 3.7 mph 6.0 kmh 3.7 mph6.0 kmh 29.96 in1014.6 mb 0.00 in0.0 mm 0.00 in0.0 mm 0.20 in5.1 mm
12:55 PM 85.4°F29.7°C 73.4°F23.0°C 48% 2.8 mph NNE4.5 kmh NNE 2.9 mph4.7 kmh 29.96 in1014.6 mb 0.00 in0.0 mm 0.00 in0.0 mm 0.20 in5.1 mm
12:58 PM 84.1°F28.9°C 74.7°F23.7°C 49% 1.2 mph NE1.9 kmh NE 1.2 mph1.9 kmh 29.96 in1014.6 mb 0.00 in0.0 mm 0.00 in0.0 mm 0.20 in5.1 mm
01:04 PM 85.2°F29.6°C 74.0°F23.3°C 48% Calm Calm -- 29.96 in1014.6 mb 0.00 in0.0 mm 0.00 in0.0 mm 0.20 in5.1 mm
01:10 PM 85.6°F29.8°C 73.2°F22.9°C 47% Calm Calm -- 29.96 in1014.6 mb 0.00 in0.0 mm 0.00 in0.0 mm 0.20 in5.1 mm
01:16 PM 86.3°F30.2°C 72.6°F22.6°C 46% 0.8 mph NNE1.3 kmh NNE 0.8 mph1.3 kmh 29.96 in1014.6 mb 0.00 in0.0 mm 0.00 in0.0 mm 0.20 in5.1 mm
01:19 PM 85.8°F29.9°C 71.8°F22.1°C 45% 0.8 mph WSW1.3 kmh WSW 0.8 mph1.3 kmh 29.96 in1014.6 mb 0.00 in0.0 mm 0.00 in0.0 mm 0.20 in5.1 mm
01:22 PM 86.5°F30.3°C 72.4°F22.4°C 46% 1.2 mph 1.9 kmh 1.2 mph1.9 kmh 29.96 in1014.6 mb 0.00 in0.0 mm 0.00 in0.0 mm 0.20 in5.1 mm
01:25 PM 85.0°F29.4°C 72.7°F22.6°C 46% 2.0 mph 3.2 kmh 2.0 mph3.2 kmh 29.96 in1014.6 mb 0.00 in0.0 mm 0.00 in0.0 mm 0.20 in5.1 mm
01:31 PM 86.1°F30.1°C 72.6°F22.6°C 47% 0.8 mph WNW1.3 kmh WNW 0.8 mph1.3 kmh 29.96 in1014.6 mb 0.00 in0.0 mm 0.00 in0.0 mm 0.20 in5.1 mm
01:34 PM 86.7°F30.4°C 73.6°F23.1°C 49% 1.6 mph NW2.6 kmh NW 1.6 mph2.6 kmh 29.96 in1014.6 mb 0.00 in0.0 mm 0.00 in0.0 mm 0.20 in5.1 mm
01:37 PM 86.8°F30.4°C 72.1°F22.3°C 46% 0.8 mph 1.3 kmh 0.8 mph1.3 kmh 29.96 in1014.6 mb 0.00 in0.0 mm 0.00 in0.0 mm 0.20 in5.1 mm
01:40 PM 83.9°F28.8°C 74.7°F23.7°C 50% 4.0 mph NE6.4 kmh NE 4.0 mph6.4 kmh 29.96 in1014.6 mb 0.00 in0.0 mm 0.00 in0.0 mm 0.20 in5.1 mm
01:43 PM 85.3°F29.6°C 75.7°F24.3°C 53% 1.2 mph ENE1.9 kmh ENE 1.2 mph1.9 kmh 29.96 in1014.6 mb 0.00 in0.0 mm 0.00 in0.0 mm 0.20 in5.1 mm
01:46 PM 86.1°F30.1°C 75.9°F24.4°C 53% 3.6 mph NNE5.8 kmh NNE 3.7 mph6.0 kmh 29.95 in1014.2 mb 0.00 in0.0 mm 0.00 in0.0 mm 0.20 in5.1 mm
02:01 PM 85.3°F29.6°C 73.4°F23.0°C 49% Calm Calm -- 29.96 in1014.6 mb 0.00 in0.0 mm 0.00 in0.0 mm 0.20 in5.1 mm
02:04 PM 85.2°F29.6°C 72.3°F22.4°C 48% 0.4 mph WSW0.6 kmh WSW 0.4 mph0.6 kmh 29.97 in1014.9 mb 0.00 in0.0 mm 0.00 in0.0 mm 0.20 in5.1 mm
02:10 PM 84.1°F28.9°C 71.9°F22.2°C 48% 3.2 mph NNW5.1 kmh NNW 3.2 mph5.1 kmh 29.96 in1014.6 mb 0.00 in0.0 mm 0.00 in0.0 mm 0.20 in5.1 mm
02:16 PM 84.3°F29.1°C 74.3°F23.5°C 52% Calm Calm -- 29.96 in1014.6 mb 0.00 in0.0 mm 0.00 in0.0 mm 0.20 in5.1 mm
02:19 PM 84.5°F29.2°C 74.4°F23.6°C 53% Calm Calm -- 29.96 in1014.6 mb 0.00 in0.0 mm 0.00 in0.0 mm 0.20 in5.1 mm
02:28 PM 85.0°F29.4°C 72.6°F22.6°C 48% Calm Calm -- 29.96 in1014.6 mb 0.00 in0.0 mm 0.00 in0.0 mm 0.20 in5.1 mm
02:31 PM 84.9°F29.4°C 73.2°F22.9°C 49% Calm Calm -- 29.95 in1014.2 mb 0.00 in0.0 mm 0.00 in0.0 mm 0.20 in5.1 mm
02:34 PM 86.9°F30.5°C 73.0°F22.8°C 50% Calm Calm -- 29.95 in1014.2 mb 0.00 in0.0 mm 0.00 in0.0 mm 0.20 in5.1 mm
02:40 PM 87.5°F30.8°C 74.2°F23.4°C 50% Calm Calm -- 29.96 in1014.6 mb 0.00 in0.0 mm 0.00 in0.0 mm 0.20 in5.1 mm
02:43 PM 86.7°F30.4°C 74.1°F23.4°C 50% Calm Calm -- 29.95 in1014.2 mb 0.00 in0.0 mm 0.00 in0.0 mm 0.20 in5.1 mm
02:46 PM 86.7°F30.4°C 72.7°F22.6°C 48% Calm Calm -- 29.95 in1014.2 mb 0.00 in0.0 mm 0.00 in0.0 mm 0.20 in5.1 mm
02:49 PM 86.8°F30.4°C 71.7°F22.1°C 46% 0.4 mph NNW0.6 kmh NNW 0.4 mph0.6 kmh 29.94 in1013.9 mb 0.00 in0.0 mm 0.00 in0.0 mm 0.20 in5.1 mm
02:55 PM 85.9°F29.9°C 72.3°F22.4°C 47% Calm Calm -- 29.94 in1013.9 mb 0.00 in0.0 mm 0.00 in0.0 mm 0.20 in5.1 mm
03:04 PM 86.5°F30.3°C 74.0°F23.3°C 50% Calm Calm -- 29.93 in1013.5 mb 0.00 in0.0 mm 0.00 in0.0 mm 0.20 in5.1 mm
03:07 PM 85.9°F29.9°C 74.2°F23.4°C 51% 1.2 mph NNW1.9 kmh NNW 1.2 mph1.9 kmh 29.93 in1013.5 mb 0.00 in0.0 mm 0.00 in0.0 mm 0.20 in5.1 mm
03:10 PM 87.4°F30.8°C 74.0°F23.3°C 51% Calm Calm -- 29.93 in1013.5 mb 0.00 in0.0 mm 0.00 in0.0 mm 0.20 in5.1 mm
03:13 PM 88.0°F31.1°C 75.3°F24.1°C 53% 1.6 mph NE2.6 kmh NE 1.6 mph2.6 kmh 29.93 in1013.5 mb 0.00 in0.0 mm 0.00 in0.0 mm 0.20 in5.1 mm
03:19 PM 88.3°F31.3°C 73.8°F23.2°C 49% 0.8 mph 1.3 kmh 0.8 mph1.3 kmh 29.93 in1013.5 mb 0.00 in0.0 mm 0.00 in0.0 mm 0.20 in5.1 mm
03:22 PM 88.9°F31.6°C 74.4°F23.6°C 50% Calm Calm -- 29.93 in1013.5 mb 0.00 in0.0 mm 0.00 in0.0 mm 0.20 in5.1 mm
03:25 PM 85.9°F29.9°C 73.8°F23.2°C 49% 2.0 mph S3.2 kmh S 2.0 mph3.2 kmh 29.93 in1013.5 mb 0.00 in0.0 mm 0.00 in0.0 mm 0.20 in5.1 mm
03:28 PM 86.3°F30.2°C 72.6°F22.6°C 48% Calm Calm -- 29.93 in1013.5 mb 0.00 in0.0 mm 0.00 in0.0 mm 0.20 in5.1 mm
03:34 PM 86.8°F30.4°C 73.4°F23.0°C 50% Calm Calm -- 29.93 in1013.5 mb 0.00 in0.0 mm 0.00 in0.0 mm 0.20 in5.1 mm
03:37 PM 87.1°F30.6°C 73.7°F23.2°C 50% Calm Calm -- 29.94 in1013.9 mb 0.00 in0.0 mm 0.00 in0.0 mm 0.20 in5.1 mm
03:40 PM 88.4°F31.3°C 73.5°F23.1°C 49% 1.2 mph WSW1.9 kmh WSW 1.2 mph1.9 kmh 29.94 in1013.9 mb 0.00 in0.0 mm 0.00 in0.0 mm 0.20 in5.1 mm
03:43 PM 89.4°F31.9°C 73.3°F22.9°C 49% 0.4 mph SW0.6 kmh SW 0.4 mph0.6 kmh 29.94 in1013.9 mb 0.00 in0.0 mm 0.00 in0.0 mm 0.20 in5.1 mm
03:46 PM 89.6°F32.0°C 73.9°F23.3°C 49% Calm Calm -- 29.95 in1014.2 mb 0.00 in0.0 mm 0.00 in0.0 mm 0.20 in5.1 mm
03:49 PM 88.0°F31.1°C 73.7°F23.2°C 48% Calm Calm -- 29.95 in1014.2 mb 0.00 in0.0 mm 0.00 in0.0 mm 0.20 in5.1 mm
03:52 PM 87.9°F31.1°C 73.2°F22.9°C 47% Calm Calm -- 29.94 in1013.9 mb 0.00 in0.0 mm 0.00 in0.0 mm 0.20 in5.1 mm
03:58 PM 89.7°F32.1°C 73.6°F23.1°C 47% 2.4 mph W3.9 kmh W 2.5 mph4.0 kmh 29.95 in1014.2 mb 0.00 in0.0 mm 0.00 in0.0 mm 0.20 in5.1 mm
04:01 PM 90.3°F32.4°C 72.3°F22.4°C 46% Calm Calm -- 29.95 in1014.2 mb 0.00 in0.0 mm 0.00 in0.0 mm 0.20 in5.1 mm
04:07 PM 89.6°F32.0°C 74.4°F23.6°C 48% Calm Calm -- 29.94 in1013.9 mb 0.00 in0.0 mm 0.00 in0.0 mm 0.20 in5.1 mm
04:10 PM 88.3°F31.3°C 73.0°F22.8°C 46% 1.9 mph NE3.1 kmh NE 2.0 mph3.2 kmh 29.95 in1014.2 mb 0.00 in0.0 mm 0.00 in0.0 mm 0.20 in5.1 mm
04:13 PM 88.5°F31.4°C 72.9°F22.7°C 46% 0.4 mph 0.6 kmh 0.4 mph0.6 kmh 29.94 in1013.9 mb 0.00 in0.0 mm 0.00 in0.0 mm 0.20 in5.1 mm
04:19 PM 86.8°F30.4°C 74.5°F23.6°C 50% 6.9 mph NE11.1 kmh NE 6.9 mph11.1 kmh 29.95 in1014.2 mb 0.00 in0.0 mm 0.00 in0.0 mm 0.20 in5.1 mm
04:28 PM 88.5°F31.4°C 73.1°F22.8°C 48% 1.2 mph NNW1.9 kmh NNW 1.2 mph1.9 kmh 29.96 in1014.6 mb 0.00 in0.0 mm 0.00 in0.0 mm 0.20 in5.1 mm
04:31 PM 90.5°F32.5°C 72.3°F22.4°C 47% 5.3 mph NNW8.5 kmh NNW 5.3 mph8.5 kmh 29.96 in1014.6 mb 0.00 in0.0 mm 0.00 in0.0 mm 0.20 in5.1 mm
04:34 PM 88.4°F31.3°C 71.3°F21.8°C 46% 5.6 mph NNW9.0 kmh NNW 5.6 mph9.0 kmh 29.96 in1014.6 mb 0.00 in0.0 mm 0.00 in0.0 mm 0.20 in5.1 mm
04:40 PM 85.4°F29.7°C 72.4°F22.4°C 48% 4.5 mph 7.2 kmh 4.5 mph7.2 kmh 29.97 in1014.9 mb 0.00 in0.0 mm 0.00 in0.0 mm 0.20 in5.1 mm
04:43 PM 85.6°F29.8°C 72.5°F22.5°C 49% 3.2 mph 5.1 kmh 3.2 mph5.1 kmh 29.98 in1015.2 mb 0.00 in0.0 mm 0.00 in0.0 mm 0.20 in5.1 mm
04:49 PM 87.2°F30.7°C 71.9°F22.2°C 48% 4.0 mph 6.4 kmh 4.1 mph6.6 kmh 29.98 in1015.2 mb 0.00 in0.0 mm 0.00 in0.0 mm 0.20 in5.1 mm
04:52 PM 86.0°F30.0°C 72.3°F22.4°C 49% 6.5 mph NNW10.5 kmh NNW 6.5 mph10.5 kmh 29.98 in1015.2 mb 0.00 in0.0 mm 0.00 in0.0 mm 0.20 in5.1 mm
04:55 PM 85.6°F29.8°C 71.7°F22.1°C 48% 3.2 mph NW5.1 kmh NW 3.2 mph5.1 kmh 29.98 in1015.2 mb 0.00 in0.0 mm 0.00 in0.0 mm 0.20 in5.1 mm
04:58 PM 84.8°F29.3°C 72.0°F22.2°C 49% 7.5 mph 12.1 kmh 7.6 mph12.2 kmh 29.98 in1015.2 mb 0.00 in0.0 mm 0.00 in0.0 mm 0.20 in5.1 mm
05:01 PM 83.8°F28.8°C 71.3°F21.8°C 49% 7.1 mph 11.4 kmh 7.2 mph11.6 kmh 29.98 in1015.2 mb 0.00 in0.0 mm 0.00 in0.0 mm 0.20 in5.1 mm
05:04 PM 83.5°F28.6°C 71.6°F22.0°C 50% 7.2 mph WNW11.6 kmh WNW 7.2 mph11.6 kmh 29.98 in1015.2 mb 0.00 in0.0 mm 0.00 in0.0 mm 0.20 in5.1 mm
05:07 PM 82.7°F28.2°C 71.0°F21.7°C 49% 5.7 mph 9.2 kmh 5.7 mph9.2 kmh 29.98 in1015.2 mb 0.00 in0.0 mm 0.00 in0.0 mm 0.20 in5.1 mm
05:10 PM 82.5°F28.1°C 71.2°F21.8°C 50% 5.3 mph NW8.5 kmh NW 5.3 mph8.5 kmh 29.98 in1015.2 mb 0.00 in0.0 mm 0.00 in0.0 mm 0.20 in5.1 mm
05:13 PM 82.3°F27.9°C 70.9°F21.6°C 50% 3.6 mph NNW5.8 kmh NNW 3.7 mph6.0 kmh 29.98 in1015.2 mb 0.00 in0.0 mm 0.00 in0.0 mm 0.20 in5.1 mm
05:16 PM 81.4°F27.4°C 70.7°F21.5°C 50% 6.4 mph 10.3 kmh 6.4 mph10.3 kmh 29.98 in1015.2 mb 0.00 in0.0 mm 0.00 in0.0 mm 0.20 in5.1 mm
05:19 PM 81.2°F27.3°C 70.8°F21.6°C 51% 5.6 mph NNW9.0 kmh NNW 5.6 mph9.0 kmh 29.98 in1015.2 mb 0.00 in0.0 mm 0.00 in0.0 mm 0.20 in5.1 mm
05:28 PM 81.4°F27.4°C 70.4°F21.3°C 51% 0.8 mph NNW1.3 kmh NNW 0.8 mph1.3 kmh 29.98 in1015.2 mb 0.00 in0.0 mm 0.00 in0.0 mm 0.20 in5.1 mm
05:31 PM 81.3°F27.4°C 71.1°F21.7°C 52% 3.6 mph NNW5.8 kmh NNW 3.6 mph5.8 kmh 29.98 in1015.2 mb 0.00 in0.0 mm 0.00 in0.0 mm 0.20 in5.1 mm
05:34 PM 81.1°F27.3°C 71.5°F21.9°C 53% 2.8 mph 4.5 kmh 2.9 mph4.7 kmh 29.97 in1014.9 mb 0.00 in0.0 mm 0.00 in0.0 mm 0.20 in5.1 mm
05:37 PM 80.0°F26.7°C 71.4°F21.9°C 54% Calm Calm -- 29.97 in1014.9 mb 0.00 in0.0 mm 0.00 in0.0 mm 0.20 in5.1 mm
05:40 PM 79.6°F26.4°C 71.2°F21.8°C 54% Calm Calm -- 29.97 in1014.9 mb 0.00 in0.0 mm 0.00 in0.0 mm 0.20 in5.1 mm
05:49 PM 78.2°F25.7°C 73.1°F22.8°C 60% 0.4 mph ESE0.6 kmh ESE 0.4 mph0.6 kmh 29.94 in1013.9 mb 0.00 in0.0 mm 0.00 in0.0 mm 0.20 in5.1 mm
05:55 PM 77.3°F25.2°C 73.9°F23.3°C 62% 4.0 mph NE6.4 kmh NE 4.0 mph6.4 kmh 29.93 in1013.5 mb 0.00 in0.0 mm 0.00 in0.0 mm 0.20 in5.1 mm
05:58 PM 78.4°F25.8°C 73.0°F22.8°C 60% 3.2 mph 5.1 kmh 3.2 mph5.1 kmh 29.94 in1013.9 mb 0.00 in0.0 mm 0.00 in0.0 mm 0.20 in5.1 mm
06:04 PM 80.0°F26.7°C 72.0°F22.2°C 58% 2.4 mph 3.9 kmh 2.4 mph3.9 kmh 29.94 in1013.9 mb 0.00 in0.0 mm 0.00 in0.0 mm 0.20 in5.1 mm
06:07 PM 79.3°F26.3°C 72.4°F22.4°C 60% 3.2 mph NNW5.1 kmh NNW 3.3 mph5.3 kmh 29.94 in1013.9 mb 0.00 in0.0 mm 0.00 in0.0 mm 0.20 in5.1 mm
06:10 PM 79.8°F26.6°C 71.4°F21.9°C 57% 3.1 mph NNW5.0 kmh NNW 3.1 mph5.0 kmh 29.95 in1014.2 mb 0.00 in0.0 mm 0.00 in0.0 mm 0.20 in5.1 mm
06:13 PM 80.4°F26.9°C 72.2°F22.3°C 59% Calm Calm -- 29.94 in1013.9 mb 0.00 in0.0 mm 0.00 in0.0 mm 0.20 in5.1 mm
06:16 PM 79.8°F26.6°C 72.5°F22.5°C 59% 6.1 mph 9.8 kmh 6.1 mph9.8 kmh 29.96 in1014.6 mb 0.00 in0.0 mm 0.00 in0.0 mm 0.20 in5.1 mm
06:19 PM 78.9°F26.1°C 72.0°F22.2°C 59% 3.9 mph NW6.3 kmh NW 3.9 mph6.3 kmh 29.95 in1014.2 mb 0.00 in0.0 mm 0.00 in0.0 mm 0.20 in5.1 mm
06:31 PM 78.0°F25.6°C 72.4°F22.4°C 61% 1.2 mph NNW1.9 kmh NNW 1.2 mph1.9 kmh 29.95 in1014.2 mb 0.00 in0.0 mm 0.00 in0.0 mm 0.20 in5.1 mm
06:34 PM 77.7°F25.4°C 73.1°F22.8°C 62% 1.2 mph NW1.9 kmh NW 1.2 mph1.9 kmh 29.95 in1014.2 mb 0.00 in0.0 mm 0.00 in0.0 mm 0.20 in5.1 mm
06:40 PM 77.9°F25.5°C 72.8°F22.7°C 62% 1.2 mph NNW1.9 kmh NNW 1.2 mph1.9 kmh 29.96 in1014.6 mb 0.00 in0.0 mm 0.00 in0.0 mm 0.20 in5.1 mm
06:49 PM 76.6°F24.8°C 72.5°F22.5°C 62% 3.6 mph 5.8 kmh 3.7 mph6.0 kmh 29.96 in1014.6 mb 0.00 in0.0 mm 0.00 in0.0 mm 0.20 in5.1 mm
06:55 PM 75.8°F24.3°C 72.5°F22.5°C 63% Calm Calm -- 29.96 in1014.6 mb 0.00 in0.0 mm 0.00 in0.0 mm 0.20 in5.1 mm
06:58 PM 76.2°F24.6°C 72.3°F22.4°C 63% 2.4 mph NNW3.9 kmh NNW 2.4 mph3.9 kmh 29.96 in1014.6 mb 0.00 in0.0 mm 0.00 in0.0 mm 0.20 in5.1 mm
07:04 PM 76.6°F24.8°C 72.2°F22.3°C 63% 1.6 mph NNW2.6 kmh NNW 1.6 mph2.6 kmh 29.96 in1014.6 mb 0.00 in0.0 mm 0.00 in0.0 mm 0.20 in5.1 mm
07:10 PM 76.4°F24.7°C 71.9°F22.2°C 62% 1.6 mph NW2.6 kmh NW 1.6 mph2.6 kmh 29.96 in1014.6 mb 0.00 in0.0 mm 0.00 in0.0 mm 0.20 in5.1 mm
07:13 PM 76.2°F24.6°C 71.5°F21.9°C 62% 2.4 mph NW3.9 kmh NW 2.4 mph3.9 kmh 29.97 in1014.9 mb 0.00 in0.0 mm 0.00 in0.0 mm 0.20 in5.1 mm
07:16 PM 76.2°F24.6°C 71.2°F21.8°C 62% Calm Calm -- 29.97 in1014.9 mb 0.00 in0.0 mm 0.00 in0.0 mm 0.20 in5.1 mm
07:19 PM 76.1°F24.5°C 71.0°F21.7°C 62% 3.6 mph NNW5.8 kmh NNW 3.6 mph5.8 kmh 29.97 in1014.9 mb 0.00 in0.0 mm 0.00 in0.0 mm 0.20 in5.1 mm
07:22 PM 75.4°F24.1°C 71.4°F21.9°C 63% Calm Calm -- 29.97 in1014.9 mb 0.00 in0.0 mm 0.00 in0.0 mm 0.20 in5.1 mm
07:25 PM 75.4°F24.1°C 72.0°F22.2°C 64% 1.6 mph 2.6 kmh 1.6 mph2.6 kmh 29.97 in1014.9 mb 0.00 in0.0 mm 0.00 in0.0 mm 0.20 in5.1 mm
07:28 PM 75.0°F23.9°C 71.6°F22.0°C 64% 0.8 mph ENE1.3 kmh ENE 0.8 mph1.3 kmh 29.97 in1014.9 mb 0.00 in0.0 mm 0.00 in0.0 mm 0.20 in5.1 mm
07:31 PM 74.4°F23.6°C 71.9°F22.2°C 65% 3.6 mph 5.8 kmh 3.7 mph6.0 kmh 29.97 in1014.9 mb 0.00 in0.0 mm 0.00 in0.0 mm 0.20 in5.1 mm
07:34 PM 75.1°F23.9°C 71.2°F21.8°C 64% 1.2 mph NNW1.9 kmh NNW 1.2 mph1.9 kmh 29.98 in1015.2 mb 0.00 in0.0 mm 0.00 in0.0 mm 0.20 in5.1 mm
07:37 PM 75.4°F24.1°C 71.5°F21.9°C 64% 1.6 mph 2.6 kmh 1.6 mph2.6 kmh 29.97 in1014.9 mb 0.00 in0.0 mm 0.00 in0.0 mm 0.20 in5.1 mm
07:40 PM 75.2°F24.0°C 71.5°F21.9°C 63% 2.8 mph NE4.5 kmh NE 2.9 mph4.7 kmh 29.97 in1014.9 mb 0.00 in0.0 mm 0.00 in0.0 mm 0.20 in5.1 mm
07:46 PM 74.1°F23.4°C 71.4°F21.9°C 64% 0.4 mph ESE0.6 kmh ESE 0.4 mph0.6 kmh 29.96 in1014.6 mb 0.00 in0.0 mm 0.00 in0.0 mm 0.20 in5.1 mm
07:49 PM 73.9°F23.3°C 70.8°F21.6°C 65% Calm Calm -- 29.96 in1014.6 mb 0.00 in0.0 mm 0.00 in0.0 mm 0.20 in5.1 mm
07:52 PM 73.7°F23.2°C 72.2°F22.3°C 66% Calm Calm -- 29.96 in1014.6 mb 0.00 in0.0 mm 0.00 in0.0 mm 0.20 in5.1 mm
08:04 PM 73.0°F22.8°C 71.8°F22.1°C 67% 0.8 mph 1.3 kmh 0.8 mph1.3 kmh 29.94 in1013.9 mb 0.00 in0.0 mm 0.00 in0.0 mm 0.20 in5.1 mm
08:07 PM 73.7°F23.2°C 69.7°F20.9°C 64% 0.8 mph NNE1.3 kmh NNE 0.8 mph1.3 kmh 29.94 in1013.9 mb 0.00 in0.0 mm 0.00 in0.0 mm 0.20 in5.1 mm
08:10 PM 73.6°F23.1°C 70.6°F21.4°C 65% Calm Calm -- 29.94 in1013.9 mb 0.00 in0.0 mm 0.00 in0.0 mm 0.20 in5.1 mm
08:16 PM 73.7°F23.2°C 70.2°F21.2°C 64% 0.4 mph WNW0.6 kmh WNW 0.4 mph0.6 kmh 29.96 in1014.6 mb 0.00 in0.0 mm 0.00 in0.0 mm 0.20 in5.1 mm
08:19 PM 73.6°F23.1°C 69.3°F20.7°C 64% 2.0 mph W3.2 kmh W 2.0 mph3.2 kmh 29.97 in1014.9 mb 0.00 in0.0 mm 0.00 in0.0 mm 0.20 in5.1 mm
08:22 PM 73.5°F23.1°C 70.1°F21.2°C 65% 0.8 mph WNW1.3 kmh WNW 0.8 mph1.3 kmh 29.98 in1015.2 mb 0.00 in0.0 mm 0.00 in0.0 mm 0.20 in5.1 mm
08:25 PM 73.2°F22.9°C 70.4°F21.3°C 67% 4.8 mph W7.7 kmh W 4.9 mph7.9 kmh 29.99 in1015.6 mb 0.00 in0.0 mm 0.00 in0.0 mm 0.20 in5.1 mm
08:28 PM 73.0°F22.8°C 71.5°F21.9°C 68% 2.4 mph NNW3.9 kmh NNW 2.4 mph3.9 kmh 29.99 in1015.6 mb 0.00 in0.0 mm 0.00 in0.0 mm 0.20 in5.1 mm
08:31 PM 72.8°F22.7°C 70.5°F21.4°C 68% 2.4 mph SW3.9 kmh SW 2.4 mph3.9 kmh 30.00 in1015.9 mb 0.00 in0.0 mm 0.00 in0.0 mm 0.20 in5.1 mm
08:40 PM 72.7°F22.6°C 71.3°F21.8°C 68% Calm Calm -- 30.00 in1015.9 mb 0.00 in0.0 mm 0.00 in0.0 mm 0.20 in5.1 mm
08:43 PM 72.1°F22.3°C 71.0°F21.7°C 68% Calm Calm -- 29.99 in1015.6 mb 0.00 in0.0 mm 0.00 in0.0 mm 0.20 in5.1 mm
08:46 PM 71.8°F22.1°C 70.6°F21.4°C 69% Calm Calm -- 30.00 in1015.9 mb 0.00 in0.0 mm 0.00 in0.0 mm 0.20 in5.1 mm
08:52 PM 71.0°F21.7°C 71.3°F21.8°C 71% Calm Calm -- 29.99 in1015.6 mb 0.00 in0.0 mm 0.00 in0.0 mm 0.20 in5.1 mm
08:55 PM 71.2°F21.8°C 70.9°F21.6°C 70% 2.0 mph SSW3.2 kmh SSW 2.0 mph3.2 kmh 30.00 in1015.9 mb 0.00 in0.0 mm 0.00 in0.0 mm 0.20 in5.1 mm
08:58 PM 72.1°F22.3°C 70.1°F21.2°C 70% 2.0 mph S3.2 kmh S 2.1 mph3.4 kmh 29.99 in1015.6 mb 0.00 in0.0 mm 0.00 in0.0 mm 0.20 in5.1 mm
09:04 PM 72.3°F22.4°C 71.0°F21.7°C 71% 1.9 mph SSE3.1 kmh SSE 2.0 mph3.2 kmh 30.00 in1015.9 mb 0.00 in0.0 mm 0.00 in0.0 mm 0.20 in5.1 mm
09:07 PM 71.9°F22.2°C 70.7°F21.5°C 71% Calm Calm -- 29.99 in1015.6 mb 0.00 in0.0 mm 0.00 in0.0 mm 0.20 in5.1 mm
09:10 PM 71.9°F22.2°C 70.4°F21.3°C 71% 2.0 mph SW3.2 kmh SW 2.0 mph3.2 kmh 29.99 in1015.6 mb 0.00 in0.0 mm 0.00 in0.0 mm 0.20 in5.1 mm
09:13 PM 71.9°F22.2°C 70.3°F21.3°C 71% 0.8 mph 1.3 kmh 0.8 mph1.3 kmh 29.99 in1015.6 mb 0.00 in0.0 mm 0.00 in0.0 mm 0.20 in5.1 mm
09:25 PM 71.4°F21.9°C 71.0°F21.7°C 72% 2.0 mph SSE3.2 kmh SSE 2.0 mph3.2 kmh 29.98 in1015.2 mb 0.00 in0.0 mm 0.00 in0.0 mm 0.20 in5.1 mm
09:28 PM 71.2°F21.8°C 70.5°F21.4°C 73% Calm Calm -- 29.98 in1015.2 mb 0.00 in0.0 mm 0.00 in0.0 mm 0.20 in5.1 mm
09:31 PM 70.9°F21.6°C 71.0°F21.7°C 73% Calm Calm -- 29.98 in1015.2 mb 0.00 in0.0 mm 0.00 in0.0 mm 0.20 in5.1 mm
09:34 PM 70.8°F21.6°C 71.0°F21.7°C 73% Calm Calm -- 29.98 in1015.2 mb 0.00 in0.0 mm 0.00 in0.0 mm 0.20 in5.1 mm
09:40 PM 70.9°F21.6°C 70.7°F21.5°C 72% 2.0 mph SW3.2 kmh SW 2.0 mph3.2 kmh 30.00 in1015.9 mb 0.00 in0.0 mm 0.00 in0.0 mm 0.20 in5.1 mm
09:43 PM 71.2°F21.8°C 70.5°F21.4°C 72% 3.2 mph W5.1 kmh W 3.2 mph5.1 kmh 30.01 in1016.3 mb 0.00 in0.0 mm 0.00 in0.0 mm 0.20 in5.1 mm
09:46 PM 71.3°F21.8°C 70.3°F21.3°C 72% Calm Calm -- 30.01 in1016.3 mb 0.00 in0.0 mm 0.00 in0.0 mm 0.20 in5.1 mm
09:49 PM 71.2°F21.8°C 70.9°F21.6°C 72% 0.8 mph W1.3 kmh W 0.8 mph1.3 kmh 30.03 in1016.9 mb 0.00 in0.0 mm 0.00 in0.0 mm 0.20 in5.1 mm
09:55 PM 71.2°F21.8°C 70.0°F21.1°C 73% 2.4 mph SW3.9 kmh SW 2.4 mph3.9 kmh 30.04 in1017.3 mb 0.00 in0.0 mm 0.00 in0.0 mm 0.20 in5.1 mm
09:58 PM 71.0°F21.7°C 71.1°F21.7°C 73% 1.6 mph SW2.6 kmh SW 1.6 mph2.6 kmh 30.04 in1017.3 mb 0.00 in0.0 mm 0.00 in0.0 mm 0.20 in5.1 mm
10:04 PM 70.9°F21.6°C 70.4°F21.3°C 73% Calm Calm -- 30.05 in1017.6 mb 0.00 in0.0 mm 0.00 in0.0 mm 0.20 in5.1 mm
10:07 PM 70.9°F21.6°C 70.7°F21.5°C 73% 1.6 mph WNW2.6 kmh WNW 1.6 mph2.6 kmh 30.06 in1017.9 mb 0.00 in0.0 mm 0.00 in0.0 mm 0.20 in5.1 mm
10:10 PM 70.8°F21.6°C 71.0°F21.7°C 73% 3.1 mph NNW5.0 kmh NNW 3.2 mph5.1 kmh 30.06 in1017.9 mb 0.00 in0.0 mm 0.00 in0.0 mm 0.20 in5.1 mm
10:16 PM 70.6°F21.4°C 70.5°F21.4°C 74% 1.6 mph SW2.6 kmh SW 1.6 mph2.6 kmh 30.06 in1017.9 mb 0.00 in0.0 mm 0.00 in0.0 mm 0.20 in5.1 mm
10:19 PM 70.6°F21.4°C 69.7°F20.9°C 73% 2.0 mph SW3.2 kmh SW 2.0 mph3.2 kmh 30.06 in1017.9 mb 0.00 in0.0 mm 0.00 in0.0 mm 0.20 in5.1 mm
10:22 PM 70.5°F21.4°C 70.1°F21.2°C 72% 2.8 mph NNW4.5 kmh NNW 2.9 mph4.7 kmh 30.06 in1017.9 mb 0.00 in0.0 mm 0.00 in0.0 mm 0.20 in5.1 mm
10:25 PM 70.6°F21.4°C 70.3°F21.3°C 73% 0.4 mph SW0.6 kmh SW 0.4 mph0.6 kmh 30.05 in1017.6 mb 0.00 in0.0 mm 0.00 in0.0 mm 0.20 in5.1 mm
10:31 PM 70.1°F21.2°C 69.7°F20.9°C 74% Calm Calm -- 30.04 in1017.3 mb 0.00 in0.0 mm 0.00 in0.0 mm 0.20 in5.1 mm
10:34 PM 70.0°F21.1°C 70.2°F21.2°C 75% Calm Calm -- 30.03 in1016.9 mb 0.00 in0.0 mm 0.00 in0.0 mm 0.20 in5.1 mm
10:37 PM 69.7°F20.9°C 70.5°F21.4°C 75% 1.2 mph SE1.9 kmh SE 1.2 mph1.9 kmh 30.03 in1016.9 mb 0.00 in0.0 mm 0.00 in0.0 mm 0.20 in5.1 mm
10:40 PM 69.6°F20.9°C 70.7°F21.5°C 76% 1.9 mph SSE3.1 kmh SSE 1.9 mph3.1 kmh 30.03 in1016.9 mb 0.00 in0.0 mm 0.00 in0.0 mm 0.20 in5.1 mm
10:43 PM 69.5°F20.8°C 69.9°F21.1°C 77% 1.6 mph SSE2.6 kmh SSE 1.6 mph2.6 kmh 30.03 in1016.9 mb 0.00 in0.0 mm 0.00 in0.0 mm 0.20 in5.1 mm
10:46 PM 69.4°F20.8°C 69.9°F21.1°C 77% 1.2 mph SSE1.9 kmh SSE 1.2 mph1.9 kmh 30.03 in1016.9 mb 0.00 in0.0 mm 0.00 in0.0 mm 0.20 in5.1 mm
10:49 PM 69.2°F20.7°C 69.9°F21.1°C 77% 0.8 mph S1.3 kmh S 0.8 mph1.3 kmh 30.04 in1017.3 mb 0.00 in0.0 mm 0.00 in0.0 mm 0.20 in5.1 mm
10:52 PM 69.0°F20.6°C 69.9°F21.1°C 77% 0.8 mph SSW1.3 kmh SSW 0.8 mph1.3 kmh 30.03 in1016.9 mb 0.00 in0.0 mm 0.00 in0.0 mm 0.20 in5.1 mm
10:55 PM 69.0°F20.6°C 69.7°F20.9°C 77% 2.4 mph S3.9 kmh S 2.4 mph3.9 kmh 30.03 in1016.9 mb 0.00 in0.0 mm 0.00 in0.0 mm 0.20 in5.1 mm
10:58 PM 68.8°F20.4°C 69.2°F20.7°C 77% 2.8 mph SSE4.5 kmh SSE 2.9 mph4.7 kmh 30.02 in1016.6 mb 0.00 in0.0 mm 0.00 in0.0 mm 0.20 in5.1 mm
11:01 PM 68.7°F20.4°C 69.9°F21.1°C 79% 0.8 mph NNW1.3 kmh NNW 0.8 mph1.3 kmh 30.02 in1016.6 mb 0.00 in0.0 mm 0.00 in0.0 mm 0.00 in0.0 mm
11:10 PM 67.9°F19.9°C 70.0°F21.1°C 78% 0.8 mph NNE1.3 kmh NNE 0.8 mph1.3 kmh 30.03 in1016.9 mb 0.00 in0.0 mm 0.00 in0.0 mm 0.00 in0.0 mm
11:13 PM 68.0°F20.0°C 69.6°F20.9°C 77% Calm Calm -- 30.03 in1016.9 mb 0.00 in0.0 mm 0.00 in0.0 mm 0.00 in0.0 mm
11:16 PM 68.1°F20.1°C 69.2°F20.7°C 77% Calm Calm -- 30.03 in1016.9 mb 0.00 in0.0 mm 0.00 in0.0 mm 0.00 in0.0 mm
11:22 PM 68.0°F20.0°C 69.7°F20.9°C 77% Calm Calm -- 30.03 in1016.9 mb 0.00 in0.0 mm 0.00 in0.0 mm 0.00 in0.0 mm
11:25 PM 67.8°F19.9°C 69.1°F20.6°C 77% Calm Calm -- 30.04 in1017.3 mb 0.00 in0.0 mm 0.00 in0.0 mm 0.00 in0.0 mm
11:28 PM 67.6°F19.8°C 69.7°F20.9°C 78% Calm Calm -- 30.04 in1017.3 mb 0.00 in0.0 mm 0.00 in0.0 mm 0.00 in0.0 mm
11:31 PM 67.6°F19.8°C 69.7°F20.9°C 78% Calm Calm -- 30.03 in1016.9 mb 0.00 in0.0 mm 0.00 in0.0 mm 0.00 in0.0 mm
11:37 PM 67.0°F19.4°C 69.4°F20.8°C 78% Calm Calm -- 30.03 in1016.9 mb 0.00 in0.0 mm 0.00 in0.0 mm 0.00 in0.0 mm
11:40 PM 67.1°F19.5°C 69.6°F20.9°C 79% Calm Calm -- 30.03 in1016.9 mb 0.00 in0.0 mm 0.00 in0.0 mm 0.00 in0.0 mm
11:43 PM 66.8°F19.3°C 69.5°F20.8°C 78% Calm Calm -- 30.03 in1016.9 mb 0.00 in0.0 mm 0.00 in0.0 mm 0.00 in0.0 mm
11:46 PM 67.0°F19.4°C 69.1°F20.6°C 78% Calm Calm -- 30.03 in1016.9 mb 0.00 in0.0 mm 0.00 in0.0 mm 0.00 in0.0 mm
11:52 PM 67.1°F19.5°C 69.0°F20.6°C 78% Calm Calm -- 30.03 in1016.9 mb 0.00 in0.0 mm 0.00 in0.0 mm 0.00 in0.0 mm
11:55 PM 66.9°F19.4°C 69.3°F20.7°C 78% Calm Calm -- 30.03 in1016.9 mb 0.00 in0.0 mm 0.00 in0.0 mm 0.00 in0.0 mm
11:58 PM 66.7°F19.3°C 68.6°F20.3°C 78% Calm Calm -- 30.03 in1016.9 mb 0.00 in0.0 mm 0.00 in0.0 mm 0.00 in0.0 mm